Bloomington Heights, Illinois
Current Conditions -  °F | °C
As of 5:56 AM on Saturday 20 Dec 2014 (Local Time) from KBMI Reporting Station
Haze Haze  
Wind Chill: 23°   Ceiling: Unl
Heat Index: 23°   Visibility: 4mi
Dew Point: 22°   Wind: 0mph
Humidity: 96%   Direction: NA
Pressure: 30.27"   Gusts: NA
Location:  40.4766°N, 88.992°W
Report Text: KBMI 201156Z 00000KT 4SM BR CLR M05/M06 A3027 RMK AO2 58002 T10501055 11027 21050 SLP270
Loading
Personal Weather Stations






























Interactive Weather Map New forecast layout! Learn more

10-Day Weather Forecast

Advertisements
Track Severe Weather on mobile